createdAt,value
2019-04-14T00:01:54.512Z,79.96
2019-04-14T00:04:31.263Z,80.18
2019-04-14T00:06:59.134Z,79.36
2019-04-14T00:09:27.305Z,79.45
2019-04-14T00:11:54.922Z,79.56
2019-04-14T00:14:22.926Z,78.91
2019-04-14T00:16:51.030Z,78.67
2019-04-14T00:19:19.348Z,77.27
2019-04-14T00:21:47.639Z,76.80
2019-04-14T00:24:16.185Z,77.37
2019-04-14T00:26:44.486Z,77.27
2019-04-14T00:29:13.034Z,77.69
2019-04-14T00:31:41.193Z,78.09
2019-04-14T00:34:26.796Z,77.58
2019-04-14T00:37:25.430Z,77.80
2019-04-14T00:39:55.466Z,78.21
2019-04-14T00:42:40.941Z,78.17
2019-04-14T00:45:32.273Z,78.78
2019-04-14T00:48:01.023Z,79.26
2019-04-14T00:50:23.298Z,79.50
2019-04-14T00:52:50.729Z,80.00
2019-04-14T00:55:18.320Z,80.40
2019-04-14T00:57:46.274Z,80.98
2019-04-14T01:00:17.280Z,81.27
2019-04-14T01:02:43.177Z,80.79
2019-04-14T01:05:10.953Z,80.63
2019-04-14T01:07:39.123Z,81.03
2019-04-14T01:10:06.311Z,81.11
2019-04-14T01:12:34.199Z,81.23
2019-04-14T01:15:01.425Z,81.67
2019-04-14T01:17:28.990Z,81.85
2019-04-14T01:19:57.002Z,82.10
2019-04-14T01:22:24.924Z,81.49
2019-04-14T01:24:53.284Z,80.88
2019-04-14T01:27:21.110Z,80.87
2019-04-14T01:29:49.443Z,81.00
2019-04-14T01:32:17.582Z,80.91
2019-04-14T01:34:45.546Z,80.86
2019-04-14T01:37:13.670Z,80.69
2019-04-14T01:39:41.465Z,80.10
2019-04-14T01:42:09.523Z,79.80
2019-04-14T01:44:37.358Z,79.29
2019-04-14T01:47:05.249Z,78.88
2019-04-14T01:49:33.292Z,78.67
2019-04-14T01:52:23.197Z,78.84
2019-04-14T01:55:11.199Z,78.86
2019-04-14T01:57:50.926Z,78.86
2019-04-14T02:00:36.415Z,79.06
2019-04-14T02:03:06.110Z,78.79
2019-04-14T02:05:34.306Z,78.74
2019-04-14T02:08:02.355Z,78.57
2019-04-14T02:10:30.477Z,78.90
2019-04-14T02:12:58.459Z,78.62
2019-04-14T02:15:26.574Z,78.65
2019-04-14T02:17:54.655Z,78.63
2019-04-14T02:20:22.925Z,78.49
2019-04-14T02:22:50.620Z,78.77
2019-04-14T02:25:18.849Z,79.00
2019-04-14T02:27:47.236Z,79.39
2019-04-14T02:30:19.573Z,79.32
2019-04-14T02:33:21.670Z,79.38
2019-04-14T02:38:14.044Z,78.99
2019-04-14T02:43:04.328Z,78.75
2019-04-14T02:45:51.986Z,78.79
2019-04-14T02:48:15.133Z,78.95
2019-04-14T02:50:32.358Z,78.95
2019-04-14T02:53:12.275Z,79.09
2019-04-14T02:55:29.919Z,78.71
2019-04-14T02:58:03.515Z,78.39
2019-04-14T03:00:54.221Z,78.43
2019-04-14T03:03:03.472Z,78.77
2019-04-14T03:08:04.234Z,78.59
2019-04-14T03:10:34.043Z,78.36
2019-04-14T03:15:35.443Z,78.96
2019-04-14T03:18:24.151Z,79.00
2019-04-14T03:21:07.371Z,79.28
2019-04-14T03:23:46.360Z,78.82
2019-04-14T03:26:15.404Z,78.59
2019-04-14T03:28:48.792Z,78.57
2019-04-14T03:31:41.741Z,78.62
2019-04-14T03:37:43.406Z,78.47
2019-04-14T03:38:53.304Z,78.88
2019-04-14T03:43:41.375Z,78.43
2019-04-14T03:46:21.345Z,78.58
2019-04-14T03:51:17.394Z,78.63
2019-04-14T03:53:39.996Z,78.54
2019-04-14T03:56:22.907Z,78.17
2019-04-14T03:58:51.128Z,78.22
2019-04-14T04:01:19.137Z,78.38
2019-04-14T04:03:47.777Z,78.56
2019-04-14T04:06:15.982Z,78.75
2019-04-14T04:08:44.140Z,78.70
2019-04-14T04:11:12.597Z,78.47
2019-04-14T04:13:41.165Z,78.56
2019-04-14T04:16:14.090Z,78.04
2019-04-14T04:18:51.243Z,77.78
2019-04-14T04:21:35.559Z,78.28
2019-04-14T04:24:30.608Z,78.61
2019-04-14T04:27:07.449Z,78.52
2019-04-14T04:29:59.221Z,78.84
2019-04-14T04:32:46.929Z,79.13
2019-04-14T04:35:24.357Z,79.10
2019-04-14T04:37:58.578Z,78.70
2019-04-14T04:40:29.065Z,78.35
2019-04-14T04:42:56.935Z,78.30
2019-04-14T04:45:24.207Z,78.24
2019-04-14T04:47:51.623Z,77.87
2019-04-14T04:50:19.314Z,77.83
2019-04-14T04:52:47.544Z,77.42
2019-04-14T04:55:15.591Z,77.38
2019-04-14T04:57:43.790Z,77.27
2019-04-14T05:00:13.460Z,77.06
2019-04-14T05:02:41.698Z,76.99
2019-04-14T05:05:45.047Z,76.74
2019-04-14T05:08:13.088Z,76.61
2019-04-14T05:10:45.757Z,76.35
2019-04-14T05:13:16.946Z,76.16
2019-04-14T05:15:47.313Z,75.89
2019-04-14T05:18:22.418Z,75.57
2019-04-14T05:20:50.686Z,74.85
2019-04-14T05:23:19.107Z,74.29
2019-04-14T05:25:47.376Z,73.71
2019-04-14T05:28:15.579Z,72.78
2019-04-14T05:30:43.665Z,71.62
2019-04-14T05:33:12.008Z,69.92
2019-04-14T05:35:40.111Z,66.62
2019-04-14T05:38:08.447Z,64.93
2019-04-14T05:40:36.414Z,61.11
2019-04-14T05:43:04.550Z,56.71
2019-04-14T05:45:32.751Z,54.15
2019-04-14T05:48:00.986Z,52.50
2019-04-14T05:50:29.263Z,49.08
2019-04-14T05:52:56.448Z,48.49
2019-04-14T05:55:24.216Z,46.47
2019-04-14T05:57:52.506Z,45.01
2019-04-14T06:00:21.092Z,44.35
2019-04-14T06:02:48.551Z,40.70
2019-04-14T06:05:16.606Z,37.64
2019-04-14T06:07:43.886Z,36.07
2019-04-14T06:10:11.222Z,34.97
2019-04-14T06:12:38.387Z,34.19
2019-04-14T06:15:05.685Z,32.73
2019-04-14T06:17:33.243Z,33.36
2019-04-14T06:20:00.418Z,32.36
2019-04-14T06:22:27.621Z,30.75
2019-04-14T06:24:55.074Z,28.56
2019-04-14T06:27:22.291Z,27.19
2019-04-14T06:29:51.807Z,26.58
2019-04-14T06:32:30.395Z,26.84
2019-04-14T06:35:29.165Z,25.80
2019-04-14T06:38:07.777Z,25.78
2019-04-14T06:40:47.573Z,25.42
2019-04-14T06:43:14.785Z,24.93
2019-04-14T06:45:42.027Z,23.85
2019-04-14T06:48:09.207Z,23.12
2019-04-14T06:50:36.312Z,21.77
2019-04-14T06:53:04.093Z,22.31
2019-04-14T06:55:31.265Z,23.63
2019-04-14T06:57:58.414Z,24.54
2019-04-14T07:00:25.588Z,25.31
2019-04-14T07:02:52.685Z,26.95
2019-04-14T07:05:19.878Z,26.72
2019-04-14T07:07:56.541Z,26.52
2019-04-14T07:10:16.466Z,27.07
2019-04-14T07:12:43.933Z,29.59
2019-04-14T07:15:11.130Z,28.35
2019-04-14T07:17:38.193Z,27.04
2019-04-14T07:20:05.776Z,24.63
2019-04-14T07:22:34.309Z,23.22
2019-04-14T07:25:34.594Z,22.66
2019-04-14T07:28:20.028Z,21.15
2019-04-14T07:31:59.048Z,20.82
2019-04-14T07:37:59.106Z,22.72
2019-04-14T07:40:48.931Z,21.55
2019-04-14T07:43:25.103Z,23.98
2019-04-14T07:46:16.005Z,25.54
2019-04-14T07:49:07.508Z,24.23
2019-04-14T07:51:40.309Z,23.49
2019-04-14T07:54:15.256Z,24.16
2019-04-14T07:56:59.081Z,22.38
2019-04-14T07:59:31.743Z,20.28
2019-04-14T08:02:13.371Z,20.13
2019-04-14T08:04:57.492Z,22.27
2019-04-14T08:07:25.267Z,23.26
2019-04-14T08:09:52.463Z,21.15
2019-04-14T08:12:19.940Z,19.41
2019-04-14T08:14:47.143Z,18.15
2019-04-14T08:17:14.306Z,17.97
2019-04-14T08:19:41.839Z,17.45
2019-04-14T08:22:09.064Z,16.65
2019-04-14T08:24:36.264Z,17.87
2019-04-14T08:27:03.495Z,19.06
2019-04-14T08:29:30.691Z,20.81
2019-04-14T08:31:57.844Z,18.90
2019-04-14T08:34:27.071Z,18.41
2019-04-14T08:36:54.164Z,16.56
2019-04-14T08:39:21.323Z,14.77
2019-04-14T08:42:06.163Z,14.59
2019-04-14T08:44:40.639Z,14.53
2019-04-14T08:47:30.417Z,14.90
2019-04-14T08:50:01.611Z,15.01
2019-04-14T08:53:03.500Z,13.91
2019-04-14T08:56:02.477Z,14.00
2019-04-14T08:59:01.191Z,13.29
2019-04-14T09:01:36.836Z,12.08
2019-04-14T09:04:18.548Z,11.16
2019-04-14T09:06:54.685Z,11.24
2019-04-14T09:09:35.013Z,12.34
2019-04-14T09:12:15.351Z,12.35
2019-04-14T09:14:37.955Z,12.36
2019-04-14T09:17:05.569Z,13.89
2019-04-14T09:19:32.732Z,14.23
2019-04-14T09:21:59.947Z,13.92
2019-04-14T09:24:27.099Z,14.01
2019-04-14T09:26:54.295Z,13.84
2019-04-14T09:29:21.525Z,13.07
2019-04-14T09:31:48.691Z,13.17
2019-04-14T09:34:15.788Z,13.43
2019-04-14T09:36:43.081Z,13.43
2019-04-14T09:39:10.292Z,14.08
2019-04-14T09:41:37.684Z,13.71
2019-04-14T09:44:05.344Z,15.59
2019-04-14T09:46:32.556Z,19.59
2019-04-14T09:48:59.743Z,20.67
2019-04-14T09:51:27.014Z,22.65
2019-04-14T09:53:54.527Z,24.94
2019-04-14T09:56:21.818Z,27.11
2019-04-14T09:58:49.038Z,28.58
2019-04-14T10:01:16.308Z,28.68
2019-04-14T10:03:43.495Z,28.93
2019-04-14T10:06:10.786Z,29.24
2019-04-14T10:08:38.095Z,29.47
2019-04-14T10:11:05.636Z,29.38
2019-04-14T10:13:32.829Z,29.97
2019-04-14T10:15:59.923Z,30.05
2019-04-14T10:18:27.094Z,29.43
2019-04-14T10:20:54.401Z,28.72
2019-04-14T10:23:21.759Z,29.14
2019-04-14T10:25:49.003Z,29.84
2019-04-14T10:28:16.233Z,30.65
2019-04-14T10:30:43.425Z,29.65
2019-04-14T10:33:10.593Z,29.92
2019-04-14T10:35:37.747Z,30.97
2019-04-14T10:38:05.017Z,31.42
2019-04-14T10:40:32.145Z,31.56
2019-04-14T10:42:59.363Z,31.28
2019-04-14T10:45:26.629Z,32.08
2019-04-14T10:47:53.703Z,32.09
2019-04-14T10:50:30.699Z,31.42
2019-04-14T10:52:50.285Z,31.43
2019-04-14T10:55:17.492Z,31.27
2019-04-14T10:57:44.616Z,30.89
2019-04-14T11:00:14.250Z,31.88
2019-04-14T11:02:41.729Z,30.76
2019-04-14T11:05:09.281Z,30.80
2019-04-14T11:07:36.486Z,30.73
2019-04-14T11:10:04.734Z,29.69
2019-04-14T11:12:31.892Z,28.90
2019-04-14T11:14:59.373Z,29.42
2019-04-14T11:17:26.575Z,29.24
2019-04-14T11:19:53.776Z,28.37
2019-04-14T11:22:21.625Z,27.34
2019-04-14T11:24:48.877Z,27.04
2019-04-14T11:27:16.297Z,25.98
2019-04-14T11:29:43.873Z,27.15
2019-04-14T11:32:36.701Z,27.50
2019-04-14T11:35:23.189Z,28.42
2019-04-14T11:38:09.459Z,28.72
2019-04-14T11:40:40.942Z,30.50
2019-04-14T11:43:08.344Z,30.72
2019-04-14T11:45:35.693Z,29.30
2019-04-14T11:48:02.752Z,29.62
2019-04-14T11:50:30.525Z,29.73
2019-04-14T11:52:57.725Z,29.52
2019-04-14T11:55:24.937Z,30.74
2019-04-14T11:57:53.434Z,30.99
2019-04-14T12:00:36.825Z,29.54
2019-04-14T12:03:12.305Z,28.46
2019-04-14T12:05:56.239Z,29.73
2019-04-14T12:08:38.027Z,28.79
2019-04-14T12:11:05.261Z,27.52
2019-04-14T12:13:32.468Z,28.37
2019-04-14T12:15:59.711Z,28.13
2019-04-14T12:18:27.010Z,28.36
2019-04-14T12:20:54.071Z,28.50
2019-04-14T12:23:21.665Z,29.30
2019-04-14T12:25:49.400Z,29.18
2019-04-14T12:28:17.306Z,28.92
2019-04-14T12:30:46.724Z,28.74
2019-04-14T12:33:14.550Z,29.06
2019-04-14T12:35:41.636Z,29.21
2019-04-14T12:38:09.442Z,28.82
2019-04-14T12:40:37.047Z,28.77
2019-04-14T12:43:21.968Z,29.82
2019-04-14T12:46:09.590Z,29.79
2019-04-14T12:48:59.232Z,31.09
2019-04-14T12:51:46.059Z,30.48
2019-04-14T12:54:14.042Z,30.36
2019-04-14T12:56:43.532Z,29.82
2019-04-14T12:59:18.926Z,30.41
2019-04-14T13:02:05.913Z,29.99
2019-04-14T13:04:33.171Z,29.41
2019-04-14T13:07:00.334Z,29.17
2019-04-14T13:09:27.526Z,29.58
2019-04-14T13:11:54.755Z,30.25
2019-04-14T13:14:22.421Z,30.07
2019-04-14T13:16:49.550Z,30.56
2019-04-14T13:19:16.815Z,30.67
2019-04-14T13:21:44.254Z,30.55
2019-04-14T13:24:11.465Z,30.43
2019-04-14T13:26:38.974Z,30.76
2019-04-14T13:29:06.311Z,31.21
2019-04-14T13:31:33.468Z,31.25
2019-04-14T13:34:00.991Z,30.28
2019-04-14T13:36:28.167Z,29.97
2019-04-14T13:38:55.349Z,30.10
2019-04-14T13:41:22.654Z,30.66
2019-04-14T13:43:49.897Z,30.89
2019-04-14T13:46:17.129Z,30.13
2019-04-14T13:48:44.418Z,29.84
2019-04-14T13:51:11.636Z,30.13
2019-04-14T13:53:38.820Z,31.08
2019-04-14T13:56:06.002Z,32.00
2019-04-14T13:58:33.801Z,32.73
2019-04-14T14:01:01.299Z,33.01
2019-04-14T14:03:28.512Z,33.80
2019-04-14T14:05:55.776Z,34.07
2019-04-14T14:08:23.271Z,32.89
2019-04-14T14:10:54.160Z,32.39
2019-04-14T14:13:36.321Z,32.08
2019-04-14T14:16:28.717Z,32.09
2019-04-14T14:19:13.915Z,32.25
2019-04-14T14:22:05.780Z,34.05
2019-04-14T14:24:48.094Z,35.11
2019-04-14T14:27:15.335Z,35.91
2019-04-14T14:29:43.071Z,35.57
2019-04-14T14:32:24.557Z,35.27
2019-04-14T14:34:51.758Z,34.86
2019-04-14T14:37:19.065Z,34.30
2019-04-14T14:39:46.280Z,35.76
2019-04-14T14:42:13.391Z,36.63
2019-04-14T14:44:45.473Z,36.58
2019-04-14T14:47:21.129Z,36.60
2019-04-14T14:50:07.895Z,37.14
2019-04-14T14:52:36.267Z,37.39
2019-04-14T14:55:04.109Z,36.84
2019-04-14T14:57:31.210Z,36.35
2019-04-14T14:59:58.519Z,36.68
2019-04-14T15:02:25.721Z,36.67
2019-04-14T15:04:52.907Z,37.28
2019-04-14T15:07:20.148Z,37.40
2019-04-14T15:09:47.351Z,37.34
2019-04-14T15:12:14.603Z,37.01
2019-04-14T15:14:41.817Z,37.81
2019-04-14T15:17:09.064Z,39.21
2019-04-14T15:19:36.249Z,39.18
2019-04-14T15:22:03.750Z,39.26
2019-04-14T15:24:30.957Z,39.99
2019-04-14T15:26:58.265Z,40.21
2019-04-14T15:29:25.536Z,39.98
2019-04-14T15:31:52.683Z,41.13
2019-04-14T15:34:19.896Z,41.28
2019-04-14T15:36:47.175Z,41.82
2019-04-14T15:39:14.433Z,42.00
2019-04-14T15:41:41.626Z,42.29
2019-04-14T15:44:08.992Z,43.06
2019-04-14T15:46:36.195Z,43.11
2019-04-14T15:49:03.391Z,43.11
2019-04-14T15:51:30.870Z,43.00
2019-04-14T15:53:58.117Z,43.33
2019-04-14T15:57:03.206Z,44.00
2019-04-14T15:59:48.945Z,44.53
2019-04-14T16:02:22.084Z,45.33
2019-04-14T16:04:58.115Z,45.91
2019-04-14T16:07:45.066Z,45.75
2019-04-14T16:10:45.537Z,46.13
2019-04-14T16:13:21.462Z,46.33
2019-04-14T16:16:14.243Z,46.32
2019-04-14T16:19:13.342Z,46.61
2019-04-14T16:21:40.524Z,46.85
2019-04-14T16:24:07.790Z,46.78
2019-04-14T16:26:49.064Z,47.13
2019-04-14T16:29:35.786Z,47.40
2019-04-14T16:32:06.005Z,48.27
2019-04-14T16:34:38.862Z,48.92
2019-04-14T16:37:06.150Z,49.29
2019-04-14T16:39:33.368Z,49.45
2019-04-14T16:42:00.489Z,49.64
2019-04-14T16:44:27.662Z,49.80
2019-04-14T16:46:55.151Z,49.57
2019-04-14T16:49:22.894Z,49.52
2019-04-14T16:51:53.845Z,49.52
2019-04-14T16:54:40.709Z,49.44
2019-04-14T16:57:29.409Z,49.31
2019-04-14T16:59:58.570Z,49.35
2019-04-14T17:02:26.053Z,49.51
2019-04-14T17:04:53.345Z,49.09
2019-04-14T17:07:20.602Z,48.87
2019-04-14T17:09:47.874Z,48.83
2019-04-14T17:12:15.595Z,49.25
2019-04-14T17:14:48.676Z,49.14
2019-04-14T17:17:36.881Z,48.83
2019-04-14T17:20:20.379Z,49.20
2019-04-14T17:23:14.551Z,49.09
2019-04-14T17:25:55.459Z,49.74
2019-04-14T17:28:41.883Z,49.50
2019-04-14T17:31:34.663Z,49.48
2019-04-14T17:34:14.147Z,49.62
2019-04-14T17:37:07.084Z,48.96
2019-04-14T17:39:39.642Z,49.39
2019-04-14T17:42:26.476Z,49.68
2019-04-14T17:45:00.509Z,50.07
2019-04-14T17:47:45.827Z,50.07
2019-04-14T17:50:40.683Z,49.98
2019-04-14T17:53:18.557Z,50.14
2019-04-14T17:55:52.077Z,49.92
2019-04-14T17:58:31.699Z,50.07
2019-04-14T18:01:22.189Z,50.38
2019-04-14T18:04:15.814Z,50.77
2019-04-14T18:06:57.278Z,50.70
2019-04-14T18:09:43.268Z,50.82
2019-04-14T18:12:36.101Z,51.04
2019-04-14T18:15:42.233Z,50.88
2019-04-14T18:18:25.292Z,51.10
2019-04-14T18:20:55.672Z,51.60
2019-04-14T18:23:23.565Z,51.89
2019-04-14T18:25:50.937Z,52.15
2019-04-14T18:28:27.165Z,52.20
2019-04-14T18:31:31.903Z,52.61
2019-04-14T18:34:27.811Z,52.76
2019-04-14T18:37:01.540Z,52.90
2019-04-14T18:39:54.071Z,53.26
2019-04-14T18:42:31.488Z,53.53
2019-04-14T18:45:19.865Z,53.28
2019-04-14T18:48:09.671Z,52.64
2019-04-14T18:50:42.837Z,53.00
2019-04-14T18:53:20.101Z,53.29
2019-04-14T18:56:09.900Z,53.13
2019-04-14T18:59:08.873Z,53.22
2019-04-14T19:01:38.483Z,53.70
2019-04-14T19:04:05.831Z,53.96
2019-04-14T19:06:33.095Z,54.06
2019-04-14T19:09:00.410Z,54.34
2019-04-14T19:11:47.327Z,54.40
2019-04-14T19:14:18.903Z,54.35
2019-04-14T19:16:49.941Z,54.29
2019-04-14T19:19:18.437Z,54.54
2019-04-14T19:21:45.635Z,54.77
2019-04-14T19:24:13.046Z,54.87
2019-04-14T19:26:40.213Z,55.10
2019-04-14T19:29:07.331Z,55.29
2019-04-14T19:31:34.768Z,55.34
2019-04-14T19:34:01.934Z,55.40
2019-04-14T19:36:29.230Z,55.25
2019-04-14T19:38:56.502Z,55.70
2019-04-14T19:41:23.992Z,55.99
2019-04-14T19:43:51.258Z,56.30
2019-04-14T19:46:18.736Z,56.48
2019-04-14T19:48:45.954Z,56.78
2019-04-14T19:51:13.154Z,56.83
2019-04-14T19:53:40.350Z,56.77
2019-04-14T19:56:07.548Z,56.91
2019-04-14T19:58:34.806Z,57.01
2019-04-14T20:01:03.412Z,57.32
2019-04-14T20:03:31.196Z,57.54
2019-04-14T20:05:58.829Z,57.74
2019-04-14T20:08:26.097Z,57.86
2019-04-14T20:10:54.631Z,57.77
2019-04-14T20:13:22.334Z,57.96
2019-04-14T20:16:18.173Z,57.74
2019-04-14T20:19:10.763Z,58.10
2019-04-14T20:21:50.024Z,58.53
2019-04-14T20:24:21.997Z,58.67
2019-04-14T20:27:02.349Z,58.70
2019-04-14T20:29:36.098Z,58.75
2019-04-14T20:32:35.003Z,59.19
2019-04-14T20:35:02.301Z,59.36
2019-04-14T20:37:29.860Z,58.92
2019-04-14T20:39:57.367Z,59.32
2019-04-14T20:42:24.666Z,60.00
2019-04-14T20:44:51.854Z,60.20
2019-04-14T20:47:19.118Z,60.61
2019-04-14T20:49:46.457Z,60.46
2019-04-14T20:52:13.678Z,60.44
2019-04-14T20:54:40.896Z,60.73
2019-04-14T20:57:08.672Z,60.67
2019-04-14T20:59:35.873Z,60.53
2019-04-14T21:02:23.603Z,60.71
2019-04-14T21:05:10.506Z,61.13
2019-04-14T21:07:56.662Z,61.33
2019-04-14T21:10:31.706Z,61.15
2019-04-14T21:13:07.906Z,61.22
2019-04-14T21:15:47.491Z,61.19
2019-04-14T21:18:34.286Z,61.20
2019-04-14T21:21:11.335Z,61.45
2019-04-14T21:24:12.996Z,61.47
2019-04-14T21:27:05.827Z,61.51
2019-04-14T21:29:55.461Z,61.61
2019-04-14T21:32:26.483Z,61.30
2019-04-14T21:35:00.288Z,61.20
2019-04-14T21:37:48.693Z,61.34
2019-04-14T21:40:22.202Z,61.69
2019-04-14T21:42:49.364Z,61.95
2019-04-14T21:45:16.608Z,62.25
2019-04-14T21:47:43.746Z,62.52
2019-04-14T21:50:11.310Z,62.55
2019-04-14T21:52:40.739Z,62.48
2019-04-14T21:55:08.225Z,62.87
2019-04-14T21:57:39.946Z,62.94
2019-04-14T22:00:35.237Z,62.90
2019-04-14T22:03:21.018Z,62.80
2019-04-14T22:06:10.139Z,63.14
2019-04-14T22:08:41.622Z,63.17
2019-04-14T22:11:13.296Z,63.28
2019-04-14T22:13:41.306Z,62.67
2019-04-14T22:16:08.563Z,62.48
2019-04-14T22:18:36.089Z,62.89
2019-04-14T22:21:03.314Z,62.83
2019-04-14T22:23:30.576Z,63.30
2019-04-14T22:25:58.184Z,63.55
2019-04-14T22:28:25.440Z,63.78
2019-04-14T22:30:52.709Z,63.91
2019-04-14T22:33:19.921Z,64.03
2019-04-14T22:35:47.354Z,63.73
2019-04-14T22:38:14.533Z,63.81
2019-04-14T22:40:41.789Z,63.77
2019-04-14T22:43:09.007Z,64.01
2019-04-14T22:45:36.230Z,64.69
2019-04-14T22:48:03.556Z,65.35
2019-04-14T22:50:30.666Z,66.19
2019-04-14T22:52:57.952Z,66.88
2019-04-14T22:55:25.457Z,67.37
2019-04-14T22:57:52.628Z,67.23
2019-04-14T23:00:45.865Z,67.28
2019-04-14T23:03:31.195Z,67.52
2019-04-14T23:06:03.619Z,67.52
2019-04-14T23:08:48.364Z,68.22
2019-04-14T23:11:50.154Z,68.58
2019-04-14T23:14:31.595Z,68.83
2019-04-14T23:17:17.105Z,68.71
2019-04-14T23:19:52.656Z,68.32
2019-04-14T23:22:48.266Z,68.16
2019-04-14T23:25:15.455Z,68.39
2019-04-14T23:27:42.655Z,68.39
2019-04-14T23:30:10.205Z,68.55
2019-04-14T23:32:37.397Z,68.81
2019-04-14T23:35:04.649Z,69.12
2019-04-14T23:37:32.165Z,69.48
2019-04-14T23:39:59.349Z,69.88
2019-04-14T23:42:26.565Z,70.07
2019-04-14T23:44:53.776Z,70.34
2019-04-14T23:47:20.985Z,70.95
2019-04-14T23:49:48.064Z,71.33
2019-04-14T23:52:15.281Z,71.58
2019-04-14T23:54:42.664Z,71.14
2019-04-14T23:57:10.207Z,70.72
2019-04-14T23:59:37.468Z,70.42
